createdAt,value
2023-01-23T00:01:27.560Z,99295.19
2023-01-23T00:05:45.926Z,99299.03
2023-01-23T00:10:03.909Z,99304.22
2023-01-23T00:14:21.539Z,99304.63
2023-01-23T00:18:39.173Z,99308.38
2023-01-23T00:22:56.650Z,99319.91
2023-01-23T00:27:14.275Z,99318.63
2023-01-23T00:31:36.714Z,99332.13
2023-01-23T00:35:55.643Z,99344.78
2023-01-23T00:40:13.447Z,99337.97
2023-01-23T00:44:31.192Z,99338.75
2023-01-23T00:48:48.941Z,99352.22
2023-01-23T00:53:06.748Z,99359.22
2023-01-23T00:57:24.459Z,99351.16
2023-01-23T01:01:42.086Z,99369.78
2023-01-23T01:06:00.791Z,99365.50
2023-01-23T01:10:19.158Z,99362.19
2023-01-23T01:14:37.014Z,99358.22
2023-01-23T01:18:55.009Z,99351.78
2023-01-23T01:23:13.048Z,99347.78
2023-01-23T01:27:30.623Z,99350.81
2023-01-23T01:31:48.203Z,99348.00
2023-01-23T01:36:18.292Z,99361.06
2023-01-23T01:40:38.097Z,99367.50
2023-01-23T01:45:00.232Z,99380.53
2023-01-23T01:49:31.027Z,99378.34
2023-01-23T01:53:55.093Z,99365.03
2023-01-23T01:58:14.285Z,99360.84
2023-01-23T02:02:44.060Z,99378.09
2023-01-23T02:07:07.441Z,99383.53
2023-01-23T02:11:25.680Z,99381.34
2023-01-23T02:15:43.191Z,99383.72
2023-01-23T02:20:19.449Z,99383.13
2023-01-23T02:24:44.436Z,99382.34
2023-01-23T02:29:02.425Z,99383.06
2023-01-23T02:33:19.765Z,99379.66
2023-01-23T02:37:41.102Z,99384.09
2023-01-23T02:41:59.911Z,99384.75
2023-01-23T02:46:20.799Z,99386.13
2023-01-23T02:50:38.451Z,99385.31
2023-01-23T02:54:56.021Z,99385.75
2023-01-23T02:59:32.630Z,99383.13
2023-01-23T03:03:51.841Z,99416.09
2023-01-23T03:08:09.700Z,99400.75
2023-01-23T03:12:27.534Z,99400.91
2023-01-23T03:16:51.552Z,99404.75
2023-01-23T03:21:09.411Z,99403.00
2023-01-23T03:25:26.909Z,99415.06
2023-01-23T03:30:03.293Z,99420.06
2023-01-23T03:34:22.311Z,99411.03
2023-01-23T03:39:00.741Z,99416.81
2023-01-23T03:43:18.430Z,99420.34
2023-01-23T03:47:36.528Z,99424.34
2023-01-23T03:51:54.176Z,99419.41
2023-01-23T03:56:11.763Z,99419.88
2023-01-23T04:00:29.253Z,99425.06
2023-01-23T04:04:47.191Z,99427.38
2023-01-23T04:09:05.271Z,99435.63
2023-01-23T04:13:23.371Z,99434.19
2023-01-23T04:17:42.392Z,99440.03
2023-01-23T04:22:00.377Z,99436.94
2023-01-23T04:26:18.091Z,99435.25
2023-01-23T04:30:35.669Z,99426.88
2023-01-23T04:34:53.270Z,99430.25
2023-01-23T04:39:10.805Z,99436.78
2023-01-23T04:43:28.543Z,99440.94
2023-01-23T04:47:46.106Z,99458.41
2023-01-23T04:52:03.970Z,99469.63
2023-01-23T04:56:21.446Z,99479.25
2023-01-23T05:00:39.180Z,99477.44
2023-01-23T05:04:56.733Z,99488.28
2023-01-23T05:09:14.615Z,99485.13
2023-01-23T05:13:32.076Z,99477.19
2023-01-23T05:17:49.960Z,99485.84
2023-01-23T05:22:07.581Z,99491.22
2023-01-23T05:26:25.395Z,99491.94
2023-01-23T05:30:43.125Z,99474.09
2023-01-23T05:35:00.666Z,99481.19
2023-01-23T05:39:18.208Z,99484.84
2023-01-23T05:43:35.854Z,99482.06
2023-01-23T05:47:55.380Z,99478.50
2023-01-23T05:52:13.202Z,99479.69
2023-01-23T05:56:31.180Z,99480.50
2023-01-23T06:00:48.638Z,99484.53
2023-01-23T06:05:06.789Z,99498.19
2023-01-23T06:09:24.334Z,99503.84
2023-01-23T06:13:43.048Z,99508.31
2023-01-23T06:18:00.611Z,99518.88
2023-01-23T06:22:18.505Z,99522.81
2023-01-23T06:26:36.034Z,99535.69
2023-01-23T06:30:54.846Z,99528.31
2023-01-23T06:35:12.555Z,99542.75
2023-01-23T06:39:34.399Z,99556.84
2023-01-23T06:43:53.780Z,99561.06
2023-01-23T06:48:11.276Z,99556.09
2023-01-23T06:52:30.018Z,99570.53
2023-01-23T06:56:49.393Z,99570.97
2023-01-23T07:01:16.144Z,99578.38
2023-01-23T07:05:39.582Z,99579.66
2023-01-23T07:09:57.409Z,99577.50
2023-01-23T07:14:14.890Z,99580.13
2023-01-23T07:18:33.488Z,99589.78
2023-01-23T07:22:51.165Z,99585.59
2023-01-23T07:27:08.789Z,99596.03
2023-01-23T07:31:26.329Z,99600.03
2023-01-23T07:35:43.875Z,99603.44
2023-01-23T07:40:01.567Z,99606.75
2023-01-23T07:44:21.859Z,99613.16
2023-01-23T07:48:39.450Z,99607.38
2023-01-23T07:52:57.071Z,99605.56
2023-01-23T07:57:14.136Z,99615.06
2023-01-23T08:01:31.816Z,99612.91
2023-01-23T08:05:50.080Z,99614.94
2023-01-23T08:10:09.296Z,99627.75
2023-01-23T08:14:26.314Z,99639.63
2023-01-23T08:18:44.792Z,99638.47
2023-01-23T08:23:02.686Z,99636.44
2023-01-23T08:27:20.218Z,99646.06
2023-01-23T08:31:39.107Z,99655.66
2023-01-23T08:35:58.592Z,99651.75
2023-01-23T08:40:16.721Z,99659.25
2023-01-23T08:44:34.555Z,99658.09
2023-01-23T08:48:52.329Z,99667.78
2023-01-23T08:53:09.763Z,99668.81
2023-01-23T08:57:27.287Z,99665.41
2023-01-23T09:01:46.415Z,99671.06
2023-01-23T09:06:04.132Z,99670.69
2023-01-23T09:10:22.508Z,99672.72
2023-01-23T09:14:40.424Z,99666.91
2023-01-23T09:18:58.172Z,99667.47
2023-01-23T09:23:15.971Z,99657.81
2023-01-23T09:27:33.529Z,99666.47
2023-01-23T09:31:51.204Z,99662.06
2023-01-23T09:36:10.116Z,99673.31
2023-01-23T09:40:59.037Z,99670.78
2023-01-23T09:45:21.471Z,99676.72
2023-01-23T09:49:57.441Z,99660.38
2023-01-23T09:54:31.108Z,99669.44
2023-01-23T09:58:57.595Z,99664.03
2023-01-23T10:03:16.624Z,99659.44
2023-01-23T10:08:17.942Z,99653.41
2023-01-23T10:13:36.072Z,99654.06
2023-01-23T10:18:25.909Z,99654.19
2023-01-23T10:23:12.801Z,99662.06
2023-01-23T10:27:38.830Z,99661.91
2023-01-23T10:32:01.781Z,99660.03
2023-01-23T10:37:24.345Z,99655.00
2023-01-23T10:41:51.212Z,99649.41
2023-01-23T10:46:22.721Z,99661.06
2023-01-23T10:50:40.758Z,99662.66
2023-01-23T10:54:58.757Z,99646.34
2023-01-23T10:59:23.815Z,99635.47
2023-01-23T11:03:46.150Z,99647.34
2023-01-23T11:08:03.908Z,99638.38
2023-01-23T11:12:31.799Z,99630.75
2023-01-23T11:17:14.072Z,99633.53
2023-01-23T11:21:39.349Z,99625.72
2023-01-23T11:25:57.200Z,99617.06
2023-01-23T11:30:36.204Z,99618.28
2023-01-23T11:35:14.684Z,99608.81
2023-01-23T11:39:57.497Z,99602.59
2023-01-23T11:44:22.709Z,99598.38
2023-01-23T11:48:49.621Z,99594.34
2023-01-23T11:53:47.399Z,99591.31
2023-01-23T11:58:53.312Z,99588.91
2023-01-23T12:03:51.018Z,99586.38
2023-01-23T12:08:28.299Z,99587.56
2023-01-23T12:13:15.755Z,99588.34
2023-01-23T12:18:29.248Z,99570.53
2023-01-23T12:23:41.914Z,99576.22
2023-01-23T12:28:31.017Z,99585.25
2023-01-23T12:33:19.764Z,99578.63
2023-01-23T12:37:53.709Z,99584.84
2023-01-23T12:42:34.953Z,99579.59
2023-01-23T12:47:04.198Z,99580.22
2023-01-23T12:51:29.453Z,99590.25
2023-01-23T12:56:17.856Z,99584.84
2023-01-23T13:00:39.279Z,99592.09
2023-01-23T13:05:23.985Z,99587.25
2023-01-23T13:10:25.730Z,99574.81
2023-01-23T13:15:06.465Z,99582.84
2023-01-23T13:19:51.489Z,99588.44
2023-01-23T13:24:40.927Z,99586.50
2023-01-23T13:29:02.569Z,99579.94
2023-01-23T13:33:31.881Z,99585.56
2023-01-23T13:37:51.723Z,99590.41
2023-01-23T13:42:15.085Z,99590.28
2023-01-23T14:23:39.343Z,99612.94
2023-01-23T14:28:05.779Z,99607.94
2023-01-23T14:32:24.840Z,99609.59
2023-01-23T14:36:51.296Z,99608.47
2023-01-23T14:41:09.165Z,99616.59
2023-01-23T14:45:33.148Z,99633.13
2023-01-23T14:49:51.272Z,99632.34
2023-01-23T14:54:22.866Z,99607.78
2023-01-23T14:58:41.699Z,99605.16
2023-01-23T15:02:59.454Z,99620.13
2023-01-23T15:07:18.098Z,99624.69
2023-01-23T15:11:35.970Z,99625.50
2023-01-23T15:16:01.746Z,99625.78
2023-01-23T15:20:38.728Z,99621.41
2023-01-23T15:24:56.952Z,99625.47
2023-01-23T15:29:21.132Z,99616.47
2023-01-23T15:33:40.441Z,99621.38
2023-01-23T15:37:59.933Z,99622.72
2023-01-23T15:42:17.433Z,99630.44
2023-01-23T15:46:35.190Z,99625.16
2023-01-23T15:50:54.464Z,99627.63
2023-01-23T15:55:13.462Z,99625.69
2023-01-23T15:59:34.144Z,99630.78
2023-01-23T16:03:52.122Z,99632.97
2023-01-23T16:08:20.484Z,99623.41
2023-01-23T16:12:38.930Z,99627.53
2023-01-23T16:16:58.257Z,99626.00
2023-01-23T16:21:30.993Z,99626.00
2023-01-23T16:25:49.419Z,99634.91
2023-01-23T16:30:21.119Z,99632.53
2023-01-23T16:34:38.717Z,99637.94
2023-01-23T16:38:56.769Z,99651.34
2023-01-23T16:43:14.393Z,99646.28
2023-01-23T16:47:31.904Z,99653.13
2023-01-23T16:51:59.501Z,99655.63
2023-01-23T16:56:30.520Z,99655.66
2023-01-23T17:00:49.979Z,99664.78
2023-01-23T17:05:09.159Z,99655.69
2023-01-23T17:09:26.901Z,99662.16
2023-01-23T17:13:44.683Z,99668.34
2023-01-23T17:18:02.576Z,99674.53
2023-01-23T17:22:30.712Z,99659.19
2023-01-23T17:26:48.318Z,99652.28
2023-01-23T17:31:06.887Z,99663.16
2023-01-23T17:35:32.231Z,99668.53
2023-01-23T17:39:49.820Z,99670.41
2023-01-23T17:44:07.498Z,99665.78
2023-01-23T17:48:31.376Z,99673.72
2023-01-23T17:52:49.950Z,99676.13
2023-01-23T17:57:07.508Z,99669.44
2023-01-23T18:01:26.084Z,99676.47
2023-01-23T18:05:43.684Z,99691.47
2023-01-23T18:10:01.252Z,99692.59
2023-01-23T18:14:52.833Z,99680.09
2023-01-23T18:19:21.262Z,99679.31
2023-01-23T18:23:39.202Z,99683.38
2023-01-23T18:28:04.860Z,99679.81
2023-01-23T18:32:57.710Z,99663.72
2023-01-23T18:37:48.347Z,99674.34
2023-01-23T18:42:16.321Z,99679.28
2023-01-23T18:46:34.223Z,99670.97
2023-01-23T18:51:18.143Z,99667.41
2023-01-23T18:55:49.124Z,99676.25
2023-01-23T19:00:28.273Z,99692.59
2023-01-23T19:05:16.109Z,99685.38
2023-01-23T19:09:36.458Z,99683.44
2023-01-23T19:14:40.731Z,99689.75
2023-01-23T19:19:28.765Z,99690.03
2023-01-23T19:23:59.989Z,99692.41
2023-01-23T19:28:18.106Z,99694.81
2023-01-23T19:32:36.915Z,99696.97
2023-01-23T19:36:54.384Z,99688.78
2023-01-23T19:41:23.593Z,99706.16
2023-01-23T19:45:41.088Z,99689.00
2023-01-23T19:49:58.704Z,99688.31
2023-01-23T19:54:16.264Z,99695.63
2023-01-23T19:58:33.912Z,99695.88
2023-01-23T20:02:53.931Z,99693.50
2023-01-23T20:07:11.596Z,99698.66
2023-01-23T20:11:29.239Z,99694.34
2023-01-23T20:15:50.542Z,99693.56
2023-01-23T20:20:10.851Z,99695.13
2023-01-23T20:24:28.358Z,99711.88
2023-01-23T20:28:53.501Z,99705.91
2023-01-23T20:33:11.038Z,99700.41
2023-01-23T20:37:28.753Z,99703.69
2023-01-23T20:41:46.269Z,99712.13
2023-01-23T20:46:07.259Z,99699.69
2023-01-23T20:50:25.104Z,99711.63
2023-01-23T20:54:42.859Z,99707.34
2023-01-23T20:59:19.130Z,99704.69
2023-01-23T21:03:37.122Z,99702.94
2023-01-23T21:07:54.568Z,99713.38
2023-01-23T21:12:12.538Z,99710.34
2023-01-23T21:16:30.146Z,99728.84
2023-01-23T21:20:47.594Z,99726.34
2023-01-23T21:25:05.993Z,99721.69
2023-01-23T21:29:23.748Z,99716.59
2023-01-23T21:33:44.343Z,99723.09
2023-01-23T21:38:02.094Z,99728.81
2023-01-23T21:42:19.545Z,99725.94
2023-01-23T21:46:37.453Z,99716.94
2023-01-23T21:51:14.426Z,99713.38
2023-01-23T21:55:32.025Z,99707.50
2023-01-23T22:00:08.256Z,99713.28
2023-01-23T22:04:25.896Z,99718.97
2023-01-23T22:08:43.515Z,99718.94
2023-01-23T22:13:01.299Z,99722.75
2023-01-23T22:17:18.795Z,99734.59
2023-01-23T22:21:36.580Z,99723.81
2023-01-23T22:26:00.809Z,99717.22
2023-01-23T22:30:19.669Z,99713.00
2023-01-23T22:34:37.537Z,99715.25
2023-01-23T22:38:55.914Z,99707.94
2023-01-23T22:43:13.337Z,99718.72
2023-01-23T22:47:30.970Z,99713.56
2023-01-23T22:51:49.107Z,99718.38
2023-01-23T22:56:07.390Z,99725.69
2023-01-23T23:00:24.820Z,99722.16
2023-01-23T23:04:42.494Z,99721.34
2023-01-23T23:08:59.964Z,99716.84
2023-01-23T23:13:17.734Z,99717.41
2023-01-23T23:17:35.294Z,99742.81
2023-01-23T23:21:52.828Z,99740.88
2023-01-23T23:26:11.878Z,99726.63
2023-01-23T23:30:29.605Z,99719.97
2023-01-23T23:34:47.211Z,99718.88
2023-01-23T23:39:04.834Z,99723.16
2023-01-23T23:43:22.622Z,99730.75
2023-01-23T23:47:40.024Z,99725.47
2023-01-23T23:51:58.106Z,99713.75
2023-01-23T23:56:26.265Z,99709.16
